createdAt,value
2023-03-28T00:02:27.988Z,99691.79
2023-03-28T00:05:00.385Z,99691.66
2023-03-28T00:07:29.641Z,99686.71
2023-03-28T00:09:58.345Z,99689.12
2023-03-28T00:12:27.434Z,99687.69
2023-03-28T00:14:57.870Z,99684.58
2023-03-28T00:17:26.521Z,99683.13
2023-03-28T00:19:55.442Z,99683.98
2023-03-28T00:22:30.860Z,99682.21
2023-03-28T00:24:59.905Z,99678.88
2023-03-28T00:27:28.826Z,99683.00
2023-03-28T00:29:58.152Z,99681.83
2023-03-28T00:32:57.786Z,99680.73
2023-03-28T00:35:27.378Z,99674.05
2023-03-28T00:37:58.138Z,99670.63
2023-03-28T00:40:27.714Z,99664.03
2023-03-28T00:42:56.570Z,99662.22
2023-03-28T00:45:27.278Z,99659.10
2023-03-28T00:48:02.371Z,99656.30
2023-03-28T00:50:41.190Z,99649.48
2023-03-28T00:53:20.662Z,99649.09
2023-03-28T00:55:57.753Z,99643.81
2023-03-28T00:58:28.284Z,99642.00
2023-03-28T01:00:57.584Z,99641.24
2023-03-28T01:03:34.101Z,99642.45
2023-03-28T01:06:04.938Z,99638.45
2023-03-28T01:08:44.337Z,99632.45
2023-03-28T01:11:13.211Z,99628.02
2023-03-28T01:13:46.361Z,99626.40
2023-03-28T01:16:16.179Z,99624.90
2023-03-28T01:18:47.232Z,99620.31
2023-03-28T01:21:38.631Z,99614.11
2023-03-28T01:24:49.566Z,99616.27
2023-03-28T01:27:20.260Z,99611.95
2023-03-28T01:30:02.842Z,99607.59
2023-03-28T01:33:05.584Z,99606.48
2023-03-28T01:36:09.295Z,99607.44
2023-03-28T01:38:48.466Z,99605.64
2023-03-28T01:41:35.705Z,99603.85
2023-03-28T01:44:06.727Z,99603.73
2023-03-28T01:46:51.234Z,99602.73
2023-03-28T01:49:29.688Z,99596.81
2023-03-28T01:52:01.514Z,99592.29
2023-03-28T01:55:05.928Z,99591.42
2023-03-28T01:57:39.359Z,99582.66
2023-03-28T02:00:15.957Z,99581.58
2023-03-28T02:03:19.183Z,99584.81
2023-03-28T02:05:54.596Z,99584.59
2023-03-28T02:08:26.801Z,99582.30
2023-03-28T02:11:14.031Z,99575.81
2023-03-28T02:14:11.582Z,99578.65
2023-03-28T02:16:57.657Z,99577.90
2023-03-28T02:19:38.064Z,99581.33
2023-03-28T02:22:32.504Z,99581.16
2023-03-28T02:25:01.333Z,99578.11
2023-03-28T02:27:43.907Z,99574.54
2023-03-28T02:30:40.190Z,99575.58
2023-03-28T02:33:39.354Z,99575.62
2023-03-28T02:36:33.765Z,99576.87
2023-03-28T02:39:16.907Z,99576.10
2023-03-28T02:41:55.028Z,99573.13
2023-03-28T02:44:28.245Z,99570.92
2023-03-28T02:47:02.754Z,99570.23
2023-03-28T02:49:49.521Z,99569.04
2023-03-28T02:52:52.546Z,99562.50
2023-03-28T02:55:34.650Z,99563.63
2023-03-28T02:58:37.890Z,99556.27
2023-03-28T03:01:07.652Z,99553.26
2023-03-28T03:03:37.810Z,99553.80
2023-03-28T03:06:15.157Z,99542.36
2023-03-28T03:46:03.454Z,99497.39
2023-03-28T03:48:39.326Z,99495.12
2023-03-28T03:51:19.633Z,99487.55
2023-03-28T03:53:50.987Z,99489.56
2023-03-28T03:56:22.984Z,99479.09
2023-03-28T03:58:54.166Z,99480.95
2023-03-28T04:01:30.780Z,99483.34
2023-03-28T04:04:29.646Z,99481.52
2023-03-28T04:07:13.621Z,99484.98
2023-03-28T04:09:43.208Z,99477.86
2023-03-28T04:12:12.015Z,99484.66
2023-03-28T04:14:48.337Z,99487.11
2023-03-28T04:17:38.060Z,99482.44
2023-03-28T04:22:16.796Z,99485.85
2023-03-28T04:26:52.981Z,99480.96
2023-03-28T04:29:31.011Z,99466.81
2023-03-28T04:32:14.167Z,99469.69
2023-03-28T04:35:04.976Z,99464.98
2023-03-28T04:37:37.936Z,99466.17
2023-03-28T04:40:16.347Z,99457.86
2023-03-28T04:43:10.835Z,99457.15
2023-03-28T04:45:50.575Z,99458.20
2023-03-28T04:48:20.244Z,99455.01
2023-03-28T04:50:49.076Z,99451.57
2023-03-28T04:53:20.760Z,99440.70
2023-03-28T04:56:09.061Z,99450.75
2023-03-28T04:58:39.113Z,99440.34
2023-03-28T05:01:11.894Z,99441.34
2023-03-28T05:04:01.913Z,99424.77
2023-03-28T05:06:31.096Z,99425.14
2023-03-28T05:08:59.843Z,99425.91
2023-03-28T05:11:31.347Z,99431.88
2023-03-28T05:14:00.231Z,99433.73
2023-03-28T05:16:36.752Z,99424.82
2023-03-28T05:19:25.213Z,99424.86
2023-03-28T05:22:02.024Z,99420.15
2023-03-28T05:24:31.955Z,99422.04
2023-03-28T05:27:01.075Z,99412.08
2023-03-28T05:29:30.130Z,99410.14
2023-03-28T05:32:19.545Z,99411.20
2023-03-28T05:34:48.476Z,99406.94
2023-03-28T05:37:17.210Z,99407.10
2023-03-28T05:39:56.008Z,99396.42
2023-03-28T05:42:26.115Z,99399.90
2023-03-28T05:44:55.846Z,99391.11
2023-03-28T05:47:43.747Z,99390.52
2023-03-28T05:50:17.842Z,99385.59
2023-03-28T05:52:57.743Z,99380.33
2023-03-28T05:55:26.358Z,99380.46
2023-03-28T05:57:56.270Z,99386.09
2023-03-28T06:00:26.158Z,99397.91
2023-03-28T06:02:56.931Z,99388.52
2023-03-28T06:05:34.706Z,99375.77
2023-03-28T06:08:06.356Z,99375.45
2023-03-28T06:10:35.663Z,99378.79
2023-03-28T06:13:21.169Z,99391.03
2023-03-28T06:15:49.887Z,99373.14
2023-03-28T06:24:45.870Z,99361.46
2023-03-28T06:31:12.393Z,99355.15
2023-03-28T06:33:54.698Z,99345.17
2023-03-28T06:36:23.806Z,99356.27
2023-03-28T06:38:53.735Z,99348.70
2023-03-28T06:41:23.923Z,99341.62
2023-03-28T06:43:52.605Z,99332.70
2023-03-28T06:47:02.997Z,99314.61
2023-03-28T06:49:32.128Z,99314.51
2023-03-28T06:52:20.239Z,99312.98
2023-03-28T06:54:49.670Z,99299.30
2023-03-28T06:57:19.589Z,99287.65
2023-03-28T06:59:49.537Z,99300.27
2023-03-28T07:02:22.065Z,99303.50
2023-03-28T07:04:56.380Z,99296.25
2023-03-28T07:07:25.514Z,99298.37
2023-03-28T07:09:55.003Z,99291.50
2023-03-28T07:12:26.807Z,99304.27
2023-03-28T07:14:56.394Z,99299.80
2023-03-28T07:18:06.114Z,99306.48
2023-03-28T07:20:34.937Z,99301.21
2023-03-28T07:23:03.762Z,99293.73
2023-03-28T07:25:34.599Z,99296.92
2023-03-28T07:28:04.714Z,99294.41
2023-03-28T07:30:35.973Z,99284.54
2023-03-28T07:33:16.627Z,99264.41
2023-03-28T07:35:47.602Z,99271.33
2023-03-28T07:38:17.131Z,99258.08
2023-03-28T07:40:53.961Z,99255.70
2023-03-28T07:43:23.299Z,99277.73
2023-03-28T07:46:03.635Z,99254.68
2023-03-28T07:48:32.677Z,99252.36
2023-03-28T07:51:01.739Z,99253.79
2023-03-28T07:53:30.845Z,99247.19
2023-03-28T07:55:59.904Z,99239.20
2023-03-28T07:58:35.853Z,99235.55
2023-03-28T08:01:57.770Z,99237.51
2023-03-28T08:04:31.245Z,99220.42
2023-03-28T08:07:07.946Z,99226.84
2023-03-28T08:09:37.247Z,99222.77
2023-03-28T08:12:19.801Z,99239.51
2023-03-28T08:15:10.452Z,99239.44
2023-03-28T08:17:39.650Z,99216.74
2023-03-28T08:20:12.865Z,99215.23
2023-03-28T08:23:03.304Z,99210.13
2023-03-28T08:26:05.244Z,99192.45
2023-03-28T08:28:37.334Z,99194.94
2023-03-28T08:31:16.507Z,99193.00
2023-03-28T08:33:48.918Z,99190.52
2023-03-28T08:36:18.055Z,99180.14
2023-03-28T08:38:47.388Z,99187.17
2023-03-28T08:41:30.017Z,99182.36
2023-03-28T08:44:27.428Z,99197.14
2023-03-28T08:47:03.403Z,99177.33
2023-03-28T08:49:34.126Z,99168.80
2023-03-28T08:52:05.772Z,99165.63
2023-03-28T08:55:08.897Z,99170.71
2023-03-28T08:57:43.628Z,99156.00
2023-03-28T09:00:15.380Z,99155.18
2023-03-28T09:02:44.995Z,99160.95
2023-03-28T09:05:23.482Z,99157.52
2023-03-28T09:08:20.721Z,99147.90
2023-03-28T09:11:03.687Z,99161.82
2023-03-28T09:13:51.934Z,99142.02
2023-03-28T09:16:23.956Z,99143.08
2023-03-28T09:19:16.935Z,99142.73
2023-03-28T09:22:15.926Z,99127.29
2023-03-28T09:24:56.721Z,99118.23
2023-03-28T09:38:43.358Z,99111.06
2023-03-28T09:42:38.616Z,99107.27
2023-03-28T09:46:41.979Z,99111.26
2023-03-28T09:49:46.180Z,99102.09
2023-03-28T09:55:21.751Z,99084.20
2023-03-28T09:58:10.615Z,99079.27
2023-03-28T10:00:58.794Z,99088.08
2023-03-28T10:04:00.525Z,99091.33
2023-03-28T10:07:09.747Z,99087.66
2023-03-28T10:09:57.169Z,99094.14
2023-03-28T10:12:36.831Z,99084.00
2023-03-28T10:15:14.411Z,99071.55
2023-03-28T10:18:20.067Z,99067.09
2023-03-28T10:20:56.656Z,99057.54
2023-03-28T10:23:26.584Z,99064.89
2023-03-28T10:25:56.422Z,99056.45
2023-03-28T10:28:33.413Z,99053.73
2023-03-28T10:31:02.508Z,99043.20
2023-03-28T10:34:03.009Z,99045.08
2023-03-28T10:36:54.847Z,99041.73
2023-03-28T10:39:30.861Z,99044.16
2023-03-28T10:42:20.339Z,99051.11
2023-03-28T10:45:03.012Z,99035.69
2023-03-28T10:47:35.790Z,99037.90
2023-03-28T10:50:07.274Z,99043.83
2023-03-28T10:52:47.835Z,99036.25
2023-03-28T10:55:25.432Z,99028.28
2023-03-28T10:58:13.719Z,99021.96
2023-03-28T11:00:59.473Z,99007.77
2023-03-28T11:04:00.640Z,99006.39
2023-03-28T11:07:15.879Z,98992.12
2023-03-28T11:10:40.595Z,98994.02
2023-03-28T11:13:37.705Z,98997.55
2023-03-28T11:16:25.578Z,98997.61
2023-03-28T11:19:39.972Z,98986.67
2023-03-28T11:22:20.020Z,98982.27
2023-03-28T11:24:52.219Z,98975.73
2023-03-28T11:27:44.841Z,98977.93
2023-03-28T11:30:29.746Z,98968.35
2023-03-28T11:33:36.957Z,98969.92
2023-03-28T11:36:16.718Z,98963.60
2023-03-28T11:38:54.610Z,98965.08
2023-03-28T11:41:26.292Z,98971.88
2023-03-28T11:44:41.786Z,98961.19
2023-03-28T11:47:18.825Z,98966.55
2023-03-28T11:50:07.317Z,98968.64
2023-03-28T11:53:14.053Z,98963.41
2023-03-28T11:56:18.191Z,98963.23
2023-03-28T11:59:09.872Z,98959.67
2023-03-28T12:01:42.037Z,98957.27
2023-03-28T12:04:13.919Z,98960.87
2023-03-28T12:07:02.207Z,98954.63
2023-03-28T12:09:38.155Z,98959.52
2023-03-28T12:12:15.115Z,98955.38
2023-03-28T12:14:57.865Z,98953.52
2023-03-28T12:17:47.455Z,98959.58
2023-03-28T12:20:31.292Z,98960.52
2023-03-28T12:23:01.868Z,98961.86
2023-03-28T12:26:04.276Z,98957.70
2023-03-28T12:28:39.117Z,98960.36
2023-03-28T12:31:14.837Z,98966.46
2023-03-28T12:42:15.746Z,99006.16
2023-03-28T12:45:07.402Z,98992.63
2023-03-28T12:47:42.717Z,98987.71
2023-03-28T12:50:45.023Z,98982.48
2023-03-28T12:53:22.295Z,98969.00
2023-03-28T12:55:54.985Z,98965.75
2023-03-28T12:58:26.941Z,98968.38
2023-03-28T13:01:30.092Z,98951.39
2023-03-28T13:04:18.617Z,98955.54
2023-03-28T13:07:10.891Z,98963.00
2023-03-28T13:09:42.595Z,98959.59
2023-03-28T13:12:31.119Z,98971.94
2023-03-28T13:15:16.502Z,98968.36
2023-03-28T13:17:49.722Z,98973.16
2023-03-28T13:20:18.782Z,98963.84
2023-03-28T13:22:58.670Z,98954.95
2023-03-28T13:25:28.805Z,98948.59
2023-03-28T13:29:03.572Z,98957.06
2023-03-28T13:32:23.706Z,98939.30
2023-03-28T13:34:57.911Z,98941.73
2023-03-28T13:37:47.932Z,98940.64
2023-03-28T13:40:56.419Z,98950.56
2023-03-28T13:47:27.712Z,98952.64
2023-03-28T13:53:55.607Z,98967.44
2023-03-28T14:04:41.002Z,98963.63
2023-03-28T14:14:41.373Z,98972.39
2023-03-28T14:17:18.422Z,98979.98
2023-03-28T14:20:24.613Z,98979.48
2023-03-28T14:24:01.366Z,98983.91
2023-03-28T14:26:51.992Z,98980.73
2023-03-28T14:36:27.721Z,98985.89
2023-03-28T14:39:19.935Z,98978.99
2023-03-28T14:42:47.350Z,98982.09
2023-03-28T14:46:25.371Z,98976.24
2023-03-28T14:50:06.611Z,98980.88
2023-03-28T14:53:13.605Z,98976.66
2023-03-28T14:59:21.798Z,98979.96
2023-03-28T15:02:27.586Z,98983.12
2023-03-28T15:05:42.603Z,98986.48
2023-03-28T15:09:58.012Z,98990.50
2023-03-28T15:13:09.310Z,98995.97
2023-03-28T15:16:09.201Z,98995.77
2023-03-28T15:19:09.692Z,99000.96
2023-03-28T15:21:40.482Z,99001.81
2023-03-28T15:24:13.850Z,99009.35
2023-03-28T15:26:44.741Z,99013.11
2023-03-28T15:29:18.346Z,99015.23
2023-03-28T15:31:49.620Z,99020.75
2023-03-28T15:34:27.704Z,99020.27
2023-03-28T15:37:02.755Z,99013.05
2023-03-28T15:39:38.294Z,99020.04
2023-03-28T15:42:21.313Z,99019.00
2023-03-28T15:45:10.230Z,99017.89
2023-03-28T15:48:20.170Z,99017.63
2023-03-28T15:50:52.751Z,99034.05
2023-03-28T15:56:23.542Z,99030.27
2023-03-28T15:58:53.708Z,99047.73
2023-03-28T16:01:49.331Z,99046.55
2023-03-28T16:05:14.622Z,99057.98
2023-03-28T16:18:04.249Z,99062.61
2023-03-28T16:33:02.855Z,99057.92
2023-03-28T16:35:53.842Z,99051.73
2023-03-28T16:41:46.124Z,99052.97
2023-03-28T16:44:32.557Z,99050.63
2023-03-28T16:50:27.595Z,99061.80
2023-03-28T16:53:22.408Z,99063.95
2023-03-28T16:55:55.287Z,99069.27
2023-03-28T16:58:29.078Z,99066.85
2023-03-28T17:01:22.118Z,99082.95
2023-03-28T17:03:56.878Z,99089.73
2023-03-28T17:06:35.917Z,99094.70
2023-03-28T17:09:05.730Z,99097.44
2023-03-28T17:11:55.258Z,99099.32
2023-03-28T17:14:53.527Z,99100.19
2023-03-28T17:17:23.697Z,99098.55
2023-03-28T17:19:52.481Z,99102.38
2023-03-28T17:22:22.295Z,99101.77
2023-03-28T17:31:07.717Z,99115.13
2023-03-28T17:33:37.119Z,99115.30
2023-03-28T17:36:58.091Z,99118.27
2023-03-28T17:46:45.416Z,99125.46
2023-03-28T17:53:27.931Z,99136.48
2023-03-28T18:00:31.561Z,99145.10
2023-03-28T18:07:15.697Z,99144.84
2023-03-28T18:10:05.997Z,99151.36
2023-03-28T18:12:37.191Z,99149.61
2023-03-28T18:15:24.981Z,99147.17
2023-03-28T18:18:14.797Z,99155.98
2023-03-28T18:21:45.425Z,99159.93
2023-03-28T18:24:25.005Z,99166.04
2023-03-28T18:27:43.512Z,99170.51
2023-03-28T18:40:38.814Z,99167.28
2023-03-28T19:06:51.642Z,99182.51
2023-03-28T19:12:56.440Z,99183.06
2023-03-28T19:22:46.422Z,99195.60
2023-03-28T19:25:40.767Z,99202.24
2023-03-28T19:29:00.206Z,99210.72
2023-03-28T19:31:57.343Z,99219.48
2023-03-28T19:34:48.908Z,99221.98
2023-03-28T19:37:44.820Z,99226.05
2023-03-28T19:40:35.203Z,99229.45
2023-03-28T19:43:16.882Z,99234.10
2023-03-28T19:46:36.419Z,99235.36
2023-03-28T19:49:30.396Z,99238.65
2023-03-28T19:52:01.388Z,99244.79
2023-03-28T19:54:36.677Z,99241.74
2023-03-28T19:57:10.576Z,99243.67
2023-03-28T20:00:01.953Z,99250.80
2023-03-28T20:02:47.887Z,99249.98
2023-03-28T20:05:18.110Z,99251.05
2023-03-28T20:07:50.483Z,99256.13
2023-03-28T20:10:20.590Z,99256.49
2023-03-28T20:12:50.130Z,99248.32
2023-03-28T20:15:19.557Z,99242.86
2023-03-28T20:17:57.460Z,99239.81
2023-03-28T20:20:30.277Z,99246.29
2023-03-28T20:23:04.691Z,99246.11
2023-03-28T20:26:01.752Z,99245.68
2023-03-28T20:28:36.626Z,99241.23
2023-03-28T20:31:13.472Z,99240.92
2023-03-28T20:37:08.057Z,99231.15
2023-03-28T20:39:42.472Z,99228.98
2023-03-28T20:42:28.229Z,99227.42
2023-03-28T20:45:22.319Z,99238.05
2023-03-28T20:48:06.653Z,99238.83
